createdAt,value
2023-04-26T00:01:54.699Z,2.70
2023-04-26T00:04:28.827Z,2.60
2023-04-26T00:07:15.640Z,2.50
2023-04-26T00:09:44.548Z,2.40
2023-04-26T00:12:12.538Z,2.40
2023-04-26T00:14:46.650Z,2.40
2023-04-26T00:17:20.693Z,2.40
2023-04-26T00:19:47.789Z,2.40
2023-04-26T00:22:21.612Z,2.40
2023-04-26T00:24:48.843Z,2.40
2023-04-26T00:27:22.622Z,2.40
2023-04-26T00:29:49.798Z,2.40
2023-04-26T00:32:23.627Z,2.40
2023-04-26T00:34:57.664Z,2.40
2023-04-26T00:37:25.075Z,2.40
2023-04-26T00:39:58.589Z,2.40
2023-04-26T00:42:27.809Z,2.40
2023-04-26T00:45:03.637Z,2.50
2023-04-26T00:47:31.245Z,2.50
2023-04-26T00:50:06.588Z,2.40
2023-04-26T00:52:33.927Z,2.40
2023-04-26T00:55:07.633Z,2.30
2023-04-26T00:57:34.693Z,2.30
2023-04-26T01:00:08.580Z,2.20
2023-04-26T01:02:36.003Z,2.10
2023-04-26T01:05:09.616Z,2.20
2023-04-26T01:07:45.659Z,2.20
2023-04-26T01:10:26.667Z,2.20
2023-04-26T01:13:00.645Z,2.10
2023-04-26T01:15:34.624Z,2.20
2023-04-26T01:18:02.079Z,2.20
2023-04-26T01:20:29.114Z,2.20
2023-04-26T01:23:03.634Z,2.30
2023-04-26T01:25:30.971Z,2.30
2023-04-26T01:28:04.654Z,2.30
2023-04-26T01:30:38.668Z,2.20
2023-04-26T01:33:05.929Z,2.20
2023-04-26T01:35:40.641Z,2.10
2023-04-26T01:38:14.612Z,2.00
2023-04-26T01:40:44.061Z,2.10
2023-04-26T01:43:17.612Z,2.10
2023-04-26T01:45:55.807Z,2.10
2023-04-26T01:48:22.883Z,2.00
2023-04-26T01:50:56.650Z,1.90
2023-04-26T01:53:23.657Z,1.80
2023-04-26T01:55:57.616Z,1.70
2023-04-26T01:58:24.680Z,1.60
2023-04-26T02:00:58.617Z,1.50
2023-04-26T02:03:26.059Z,1.40
2023-04-26T02:05:59.688Z,1.30
2023-04-26T02:08:33.707Z,1.30
2023-04-26T02:11:07.606Z,1.20
2023-04-26T02:13:34.702Z,1.10
2023-04-26T02:16:08.664Z,1.10
2023-04-26T02:18:42.643Z,1.10
2023-04-26T02:21:11.828Z,1.10
2023-04-26T02:23:45.647Z,1.20
2023-04-26T02:26:13.558Z,1.20
2023-04-26T02:28:48.691Z,1.20
2023-04-26T02:31:15.728Z,1.20
2023-04-26T02:33:49.682Z,1.20
2023-04-26T02:36:16.670Z,1.20
2023-04-26T02:38:43.957Z,1.30
2023-04-26T02:41:17.646Z,1.40
2023-04-26T02:43:50.632Z,1.50
2023-04-26T02:46:24.681Z,1.50
2023-04-26T02:48:52.029Z,1.50
2023-04-26T02:51:25.692Z,1.50
2023-04-26T02:53:59.654Z,1.50
2023-04-26T02:56:33.612Z,1.50
2023-04-26T02:59:06.621Z,1.40
2023-04-26T03:01:33.767Z,1.40
2023-04-26T03:04:07.939Z,1.30
2023-04-26T03:06:35.976Z,1.20
2023-04-26T03:09:16.702Z,1.10
2023-04-26T03:11:50.736Z,1.00
2023-04-26T03:14:24.647Z,0.90
2023-04-26T03:16:58.730Z,0.80
2023-04-26T03:19:33.639Z,0.80
2023-04-26T03:22:01.469Z,0.70
2023-04-26T03:24:35.663Z,0.70
2023-04-26T03:27:09.641Z,0.70
2023-04-26T03:29:37.479Z,0.70
2023-04-26T03:32:11.714Z,0.60
2023-04-26T03:34:54.705Z,0.50
2023-04-26T03:37:21.789Z,0.50
2023-04-26T03:39:57.679Z,0.50
2023-04-26T03:42:24.915Z,0.50
2023-04-26T03:44:58.645Z,0.50
2023-04-26T03:47:32.699Z,0.60
2023-04-26T03:50:06.683Z,0.60
2023-04-26T03:52:40.627Z,0.60
2023-04-26T03:55:10.321Z,0.70
2023-04-26T03:57:44.684Z,0.70
2023-04-26T04:00:14.366Z,0.80
2023-04-26T04:02:49.757Z,0.90
2023-04-26T04:05:17.165Z,0.90
2023-04-26T04:07:50.680Z,0.90
2023-04-26T04:10:24.708Z,1.00
2023-04-26T04:12:53.323Z,1.00
2023-04-26T04:15:27.640Z,1.00
2023-04-26T04:17:54.786Z,1.00
2023-04-26T04:20:28.615Z,0.90
2023-04-26T04:22:58.640Z,1.00
2023-04-26T04:25:34.063Z,1.00
2023-04-26T04:28:03.055Z,0.90
2023-04-26T04:30:30.930Z,1.00
2023-04-26T04:33:09.365Z,1.00
2023-04-26T04:35:42.667Z,0.90
2023-04-26T04:38:09.715Z,0.90
2023-04-26T04:40:43.659Z,0.90
2023-04-26T04:43:10.658Z,0.80
2023-04-26T04:45:45.699Z,0.80
2023-04-26T04:48:12.813Z,0.80
2023-04-26T04:50:46.732Z,0.90
2023-04-26T04:53:20.665Z,1.00
2023-04-26T04:55:56.674Z,1.10
2023-04-26T04:58:23.784Z,1.20
2023-04-26T05:01:00.642Z,1.30
2023-04-26T05:03:34.776Z,1.30
2023-04-26T05:06:09.641Z,1.40
2023-04-26T05:08:56.679Z,1.50
2023-04-26T05:11:30.676Z,1.50
2023-04-26T05:13:58.379Z,1.70
2023-04-26T05:16:33.719Z,1.80
2023-04-26T05:19:09.917Z,1.80
2023-04-26T05:21:43.687Z,1.80
2023-04-26T05:24:12.122Z,1.90
2023-04-26T05:26:48.695Z,1.90
2023-04-26T05:29:23.689Z,1.80
2023-04-26T05:31:57.711Z,1.90
2023-04-26T05:34:25.129Z,2.00
2023-04-26T05:37:00.880Z,2.30
2023-04-26T05:39:34.946Z,2.50
2023-04-26T05:42:12.677Z,2.80
2023-04-26T05:44:47.727Z,3.20
2023-04-26T05:47:22.929Z,3.40
2023-04-26T05:49:56.964Z,3.50
2023-04-26T05:52:24.227Z,3.60
2023-04-26T05:54:58.712Z,3.70
2023-04-26T05:57:26.128Z,3.80
2023-04-26T05:59:59.702Z,3.90
2023-04-26T06:02:26.990Z,4.10
2023-04-26T06:04:54.715Z,4.30
2023-04-26T06:07:28.674Z,4.40
2023-04-26T06:10:09.686Z,4.60
2023-04-26T06:12:43.703Z,4.90
2023-04-26T06:15:18.731Z,5.10
2023-04-26T06:17:45.902Z,5.10
2023-04-26T06:20:19.692Z,5.10
2023-04-26T06:22:54.674Z,5.20
2023-04-26T06:25:28.642Z,5.30
2023-04-26T06:27:57.990Z,5.30
2023-04-26T06:30:32.680Z,5.30
2023-04-26T06:33:07.725Z,5.30
2023-04-26T06:35:43.130Z,5.40
2023-04-26T06:38:20.722Z,5.60
2023-04-26T06:40:50.260Z,5.70
2023-04-26T06:43:23.668Z,5.80
2023-04-26T06:45:51.697Z,6.00
2023-04-26T06:48:25.705Z,6.20
2023-04-26T06:50:53.977Z,6.40
2023-04-26T06:53:28.760Z,6.50
2023-04-26T06:55:57.648Z,6.70
2023-04-26T06:58:25.936Z,6.90
2023-04-26T07:00:59.674Z,7.00
2023-04-26T07:03:27.147Z,7.10
2023-04-26T07:06:04.012Z,7.00
2023-04-26T07:08:37.832Z,7.20
2023-04-26T07:11:17.692Z,7.20
2023-04-26T07:13:44.813Z,7.20
2023-04-26T07:16:18.907Z,6.90
2023-04-26T07:18:54.713Z,6.60
2023-04-26T07:21:28.701Z,6.60
2023-04-26T07:24:05.661Z,6.60
2023-04-26T07:26:39.744Z,6.70
2023-04-26T07:29:13.798Z,6.80
2023-04-26T07:31:47.725Z,6.90
2023-04-26T07:34:21.778Z,6.80
2023-04-26T07:36:56.980Z,6.70
2023-04-26T07:39:31.718Z,6.70
2023-04-26T07:42:05.706Z,6.90
2023-04-26T07:44:39.724Z,7.10
2023-04-26T07:47:13.743Z,7.20
2023-04-26T07:49:47.987Z,7.20
2023-04-26T07:52:21.712Z,7.10
2023-04-26T07:54:55.783Z,7.00
2023-04-26T07:57:22.914Z,7.10
2023-04-26T08:00:16.792Z,7.70
2023-04-26T08:02:49.512Z,8.50
2023-04-26T08:05:24.057Z,9.50
2023-04-26T08:07:57.795Z,10.10
2023-04-26T08:10:31.427Z,10.60
2023-04-26T08:13:09.808Z,10.60
2023-04-26T08:15:43.705Z,10.50
2023-04-26T08:18:17.821Z,10.10
2023-04-26T08:20:45.164Z,9.70
2023-04-26T08:23:19.715Z,9.30
2023-04-26T08:25:53.727Z,9.10
2023-04-26T08:28:28.833Z,8.80
2023-04-26T08:31:02.776Z,8.40
2023-04-26T08:33:30.092Z,8.00
2023-04-26T08:36:07.718Z,7.70
2023-04-26T08:38:35.404Z,7.50
2023-04-26T08:41:12.684Z,7.40
2023-04-26T08:43:40.788Z,7.40
2023-04-26T08:46:22.200Z,7.50
2023-04-26T08:49:15.462Z,7.60
2023-04-26T08:51:51.754Z,7.90
2023-04-26T08:54:27.997Z,7.90
2023-04-26T08:57:05.735Z,8.50
2023-04-26T08:59:44.696Z,9.10
2023-04-26T09:02:25.975Z,10.30
2023-04-26T09:04:59.888Z,11.40
2023-04-26T09:07:41.731Z,12.30
2023-04-26T09:10:16.766Z,12.80
2023-04-26T09:12:51.750Z,13.10
2023-04-26T09:15:22.990Z,13.40
2023-04-26T09:17:52.054Z,13.10
2023-04-26T09:20:37.737Z,13.00
2023-04-26T09:23:08.518Z,12.70
2023-04-26T09:25:43.797Z,12.70
2023-04-26T09:28:24.807Z,12.40
2023-04-26T09:30:59.773Z,12.00
2023-04-26T09:33:27.586Z,11.60
2023-04-26T09:36:01.750Z,11.30
2023-04-26T09:38:28.785Z,11.30
2023-04-26T09:41:05.827Z,11.20
2023-04-26T09:43:44.753Z,11.10
2023-04-26T09:46:18.797Z,11.00
2023-04-26T09:49:01.723Z,10.90
2023-04-26T09:51:35.780Z,10.90
2023-04-26T09:54:06.502Z,10.80
2023-04-26T09:56:40.734Z,10.60
2023-04-26T09:59:15.706Z,10.50
2023-04-26T10:01:43.980Z,10.50
2023-04-26T10:04:17.897Z,10.40
2023-04-26T10:06:45.159Z,10.50
2023-04-26T10:09:24.710Z,10.30
2023-04-26T10:12:04.724Z,10.30
2023-04-26T10:14:38.809Z,10.20
2023-04-26T10:17:06.755Z,10.20
2023-04-26T10:19:43.732Z,10.30
2023-04-26T10:22:23.842Z,10.30
2023-04-26T10:25:00.773Z,10.40
2023-04-26T10:28:01.068Z,10.60
2023-04-26T10:30:34.761Z,11.60
2023-04-26T10:33:02.220Z,12.70
2023-04-26T10:35:37.797Z,13.80
2023-04-26T10:38:09.284Z,14.20
2023-04-26T10:40:47.853Z,14.80
2023-04-26T10:43:22.125Z,14.70
2023-04-26T10:45:56.835Z,15.00
2023-04-26T10:48:38.762Z,14.60
2023-04-26T10:51:08.798Z,14.00
2023-04-26T10:53:55.059Z,13.80
2023-04-26T10:56:34.858Z,13.60
2023-04-26T10:59:28.496Z,13.50
2023-04-26T11:02:07.797Z,13.10
2023-04-26T11:05:00.903Z,12.70
2023-04-26T11:07:45.838Z,12.60
2023-04-26T11:10:36.797Z,12.30
2023-04-26T11:13:11.782Z,11.70
2023-04-26T11:15:45.852Z,11.50
2023-04-26T11:18:13.138Z,11.60
2023-04-26T11:20:46.774Z,11.90
2023-04-26T11:23:15.806Z,12.10
2023-04-26T11:25:50.785Z,12.10
2023-04-26T11:28:19.696Z,12.40
2023-04-26T11:30:59.316Z,13.00
2023-04-26T11:33:26.457Z,13.00
2023-04-26T11:36:04.826Z,12.90
2023-04-26T11:38:32.053Z,12.70
2023-04-26T11:41:10.794Z,12.70
2023-04-26T11:43:40.011Z,13.00
2023-04-26T11:46:09.406Z,13.00
2023-04-26T11:48:45.092Z,12.90
2023-04-26T11:51:12.354Z,12.10
2023-04-26T11:53:43.071Z,12.00
2023-04-26T11:56:29.823Z,12.10
2023-04-26T11:59:04.834Z,12.10
2023-04-26T12:01:39.811Z,11.90
2023-04-26T12:04:16.957Z,11.60
2023-04-26T12:06:53.747Z,11.30
2023-04-26T12:09:36.789Z,11.50
2023-04-26T12:12:18.758Z,11.80
2023-04-26T12:14:54.736Z,12.30
2023-04-26T12:17:29.108Z,13.10
2023-04-26T12:20:04.866Z,14.70
2023-04-26T12:22:38.771Z,15.80
2023-04-26T12:25:08.688Z,16.30
2023-04-26T12:27:43.000Z,16.30
2023-04-26T12:30:10.494Z,16.40
2023-04-26T12:32:44.867Z,16.20
2023-04-26T12:35:12.238Z,16.40
2023-04-26T12:37:47.817Z,16.80
2023-04-26T12:40:16.342Z,16.60
2023-04-26T12:42:51.811Z,16.10
2023-04-26T12:45:19.987Z,15.40
2023-04-26T12:47:55.179Z,14.90
2023-04-26T12:50:28.783Z,14.30
2023-04-26T12:53:02.809Z,14.10
2023-04-26T12:55:32.611Z,14.20
2023-04-26T12:58:06.825Z,13.70
2023-04-26T13:00:41.648Z,13.10
2023-04-26T13:03:17.893Z,12.60
2023-04-26T13:05:45.425Z,12.50
2023-04-26T13:08:19.879Z,13.10
2023-04-26T13:10:53.452Z,13.50
2023-04-26T13:13:39.916Z,13.60
2023-04-26T13:16:10.159Z,14.00
2023-04-26T13:18:43.811Z,13.80
2023-04-26T13:21:17.822Z,13.50
2023-04-26T13:23:46.401Z,13.70
2023-04-26T13:26:20.812Z,13.60
2023-04-26T13:28:48.492Z,13.40
2023-04-26T13:31:23.864Z,13.40
2023-04-26T13:33:51.782Z,13.60
2023-04-26T13:36:25.790Z,13.50
2023-04-26T13:38:52.974Z,13.70
2023-04-26T13:41:26.823Z,13.60
2023-04-26T13:43:53.986Z,13.50
2023-04-26T13:46:21.197Z,14.70
2023-04-26T13:48:54.888Z,15.90
2023-04-26T13:51:36.827Z,16.20
2023-04-26T13:54:06.089Z,15.80
2023-04-26T13:56:40.802Z,15.40
2023-04-26T13:59:08.194Z,15.10
2023-04-26T14:01:42.909Z,15.10
2023-04-26T14:04:16.966Z,15.20
2023-04-26T14:06:50.879Z,15.20
2023-04-26T14:09:24.649Z,14.80
2023-04-26T14:12:07.859Z,14.50
2023-04-26T14:14:37.118Z,14.00
2023-04-26T14:17:10.844Z,13.70
2023-04-26T14:19:45.029Z,13.40
2023-04-26T14:22:23.848Z,13.30
2023-04-26T14:24:58.838Z,13.10
2023-04-26T14:27:32.850Z,13.20
2023-04-26T14:30:07.846Z,13.20
2023-04-26T14:32:41.897Z,13.00
2023-04-26T14:35:09.309Z,12.70
2023-04-26T14:37:44.909Z,12.60
2023-04-26T14:40:27.938Z,12.70
2023-04-26T14:43:09.859Z,12.50
2023-04-26T14:45:44.823Z,12.30
2023-04-26T14:48:12.680Z,12.20
2023-04-26T14:50:46.842Z,12.10
2023-04-26T14:53:14.088Z,12.00
2023-04-26T14:55:41.450Z,11.90
2023-04-26T14:58:14.886Z,11.90
2023-04-26T15:00:45.335Z,11.80
2023-04-26T15:03:18.976Z,11.90
2023-04-26T15:05:47.458Z,12.50
2023-04-26T15:08:20.871Z,13.10
2023-04-26T15:10:54.897Z,13.40
2023-04-26T15:13:28.900Z,14.00
2023-04-26T15:15:56.457Z,14.50
2023-04-26T15:18:30.835Z,14.70
2023-04-26T15:21:05.806Z,14.50
2023-04-26T15:23:39.820Z,14.40
2023-04-26T15:26:06.885Z,14.30
2023-04-26T15:28:41.813Z,14.00
2023-04-26T15:31:10.259Z,13.80
2023-04-26T15:33:44.893Z,13.50
2023-04-26T15:36:18.895Z,13.10
2023-04-26T15:38:48.542Z,12.70
2023-04-26T15:41:22.820Z,12.20
2023-04-26T15:44:04.877Z,11.90
2023-04-26T15:46:38.867Z,11.80
2023-04-26T15:49:07.270Z,11.70
2023-04-26T15:51:42.817Z,11.70
2023-04-26T15:54:12.196Z,11.70
2023-04-26T15:56:47.842Z,11.60
2023-04-26T15:59:14.907Z,11.70
2023-04-26T16:01:50.869Z,11.70
2023-04-26T16:04:25.060Z,11.80
2023-04-26T16:07:00.828Z,12.10
2023-04-26T16:09:35.025Z,12.30
2023-04-26T16:12:18.816Z,12.30
2023-04-26T16:14:46.211Z,12.20
2023-04-26T16:17:21.831Z,12.10
2023-04-26T16:19:49.118Z,11.90
2023-04-26T16:22:23.842Z,11.80
2023-04-26T16:24:52.207Z,11.60
2023-04-26T16:27:27.944Z,11.20
2023-04-26T16:29:57.007Z,11.00
2023-04-26T16:32:31.197Z,10.80
2023-04-26T16:35:08.285Z,10.50
2023-04-26T16:37:42.866Z,10.40
2023-04-26T16:40:17.846Z,10.30
2023-04-26T16:42:45.070Z,10.30
2023-04-26T16:45:18.866Z,10.20
2023-04-26T16:47:46.338Z,10.30
2023-04-26T16:50:19.851Z,10.20
2023-04-26T16:52:47.528Z,10.10
2023-04-26T16:55:20.850Z,10.00
2023-04-26T16:57:48.852Z,10.00
2023-04-26T17:00:23.855Z,9.80
2023-04-26T17:02:51.625Z,9.50
2023-04-26T17:05:25.869Z,9.40
2023-04-26T17:07:53.453Z,9.30
2023-04-26T17:10:33.891Z,9.20
2023-04-26T17:13:12.778Z,9.10
2023-04-26T17:15:50.130Z,9.00
2023-04-26T17:18:17.352Z,8.80
2023-04-26T17:20:50.827Z,8.60
2023-04-26T17:23:18.090Z,8.50
2023-04-26T17:25:53.335Z,8.20
2023-04-26T17:28:22.131Z,8.00
2023-04-26T17:30:56.942Z,8.00
2023-04-26T17:33:25.700Z,7.90
2023-04-26T17:36:00.825Z,7.80
2023-04-26T17:38:27.951Z,7.70
2023-04-26T17:41:03.854Z,7.70
2023-04-26T17:43:32.185Z,7.60
2023-04-26T17:46:11.931Z,7.50
2023-04-26T17:48:39.750Z,7.40
2023-04-26T17:51:13.886Z,7.40
2023-04-26T17:53:41.003Z,7.30
2023-04-26T17:56:17.898Z,7.20
2023-04-26T17:58:45.524Z,7.20
2023-04-26T18:01:19.892Z,7.10
2023-04-26T18:03:47.666Z,7.00
2023-04-26T18:06:24.862Z,6.90
2023-04-26T18:08:58.900Z,6.90
2023-04-26T18:11:35.124Z,6.90
2023-04-26T18:14:08.857Z,6.70
2023-04-26T18:16:37.389Z,6.70
2023-04-26T18:19:11.854Z,6.50
2023-04-26T18:21:45.875Z,6.50
2023-04-26T18:24:22.838Z,6.40
2023-04-26T18:26:50.368Z,6.30
2023-04-26T18:29:23.900Z,6.30
2023-04-26T18:31:52.634Z,6.20
2023-04-26T18:34:27.860Z,6.20
2023-04-26T18:36:55.033Z,6.10
2023-04-26T18:39:28.876Z,6.00
2023-04-26T18:42:02.886Z,6.00
2023-04-26T18:44:37.008Z,5.80
2023-04-26T18:47:10.850Z,5.80
2023-04-26T18:49:37.945Z,5.70
2023-04-26T18:52:14.862Z,5.50
2023-04-26T18:54:42.071Z,5.40
2023-04-26T18:57:16.879Z,5.30
2023-04-26T18:59:43.944Z,5.20
2023-04-26T19:02:18.038Z,5.20
2023-04-26T19:04:46.919Z,5.10
2023-04-26T19:07:22.842Z,5.00
2023-04-26T19:09:58.838Z,5.00
2023-04-26T19:12:39.950Z,5.00
2023-04-26T19:15:08.136Z,5.00
2023-04-26T19:17:41.949Z,5.00
2023-04-26T19:20:18.859Z,5.00
2023-04-26T19:22:54.147Z,5.00
2023-04-26T19:25:29.850Z,5.00
2023-04-26T19:27:56.924Z,5.10
2023-04-26T19:30:31.051Z,5.10
2023-04-26T19:32:58.215Z,5.00
2023-04-26T19:35:31.968Z,5.00
2023-04-26T19:38:06.974Z,5.00
2023-04-26T19:40:40.927Z,5.00
2023-04-26T19:43:14.889Z,5.00
2023-04-26T19:45:48.984Z,5.00
2023-04-26T19:48:22.915Z,5.10
2023-04-26T19:50:56.943Z,5.00
2023-04-26T19:53:30.920Z,5.00
2023-04-26T19:56:05.906Z,5.00
2023-04-26T19:58:35.003Z,5.00
2023-04-26T20:01:09.957Z,5.00
2023-04-26T20:03:39.443Z,5.00
2023-04-26T20:06:13.942Z,5.00
2023-04-26T20:08:41.543Z,5.00
2023-04-26T20:11:23.897Z,5.00
2023-04-26T20:13:57.940Z,5.00
2023-04-26T20:16:31.941Z,5.00
2023-04-26T20:19:06.105Z,4.90
2023-04-26T20:21:33.585Z,4.90
2023-04-26T20:24:06.933Z,4.90
2023-04-26T20:26:34.205Z,4.90
2023-04-26T20:29:09.233Z,4.90
2023-04-26T20:31:37.111Z,4.90
2023-04-26T20:34:10.942Z,4.90
2023-04-26T20:36:39.029Z,4.80
2023-04-26T20:39:13.963Z,4.80
2023-04-26T20:41:47.871Z,4.80
2023-04-26T20:44:21.873Z,4.70
2023-04-26T20:46:54.928Z,4.70
2023-04-26T20:49:28.889Z,4.60
2023-04-26T20:52:02.919Z,4.60
2023-04-26T20:54:29.949Z,4.70
2023-04-26T20:56:58.407Z,4.70
2023-04-26T20:59:32.964Z,4.70
2023-04-26T21:02:00.000Z,4.80
2023-04-26T21:04:33.983Z,4.80
2023-04-26T21:07:01.325Z,4.80
2023-04-26T21:09:34.876Z,4.80
2023-04-26T21:12:08.754Z,4.70
2023-04-26T21:14:41.945Z,4.70
2023-04-26T21:17:09.040Z,4.70
2023-04-26T21:19:42.900Z,4.80
2023-04-26T21:22:09.943Z,4.80
2023-04-26T21:24:45.079Z,4.80
2023-04-26T21:27:12.233Z,4.80
2023-04-26T21:29:45.890Z,4.70
2023-04-26T21:32:12.973Z,4.70
2023-04-26T21:34:46.893Z,4.70
2023-04-26T21:37:19.924Z,4.70
2023-04-26T21:39:55.821Z,4.70
2023-04-26T21:42:22.880Z,4.70
2023-04-26T21:44:56.884Z,4.70
2023-04-26T21:47:33.529Z,4.70
2023-04-26T21:50:06.940Z,4.80
2023-04-26T21:52:42.353Z,4.80
2023-04-26T21:55:16.885Z,4.80
2023-04-26T21:57:46.225Z,4.80
2023-04-26T22:00:19.945Z,4.70
2023-04-26T22:02:54.009Z,4.70
2023-04-26T22:05:22.844Z,4.70
2023-04-26T22:07:56.922Z,4.70
2023-04-26T22:10:29.996Z,4.70
2023-04-26T22:13:03.917Z,4.70
2023-04-26T22:15:32.082Z,4.60
2023-04-26T22:18:05.991Z,4.60
2023-04-26T22:20:33.159Z,4.60
2023-04-26T22:23:06.930Z,4.60
2023-04-26T22:25:35.217Z,4.60
2023-04-26T22:28:08.925Z,4.60
2023-04-26T22:30:37.491Z,4.50
2023-04-26T22:33:10.986Z,4.50
2023-04-26T22:35:39.266Z,4.50
2023-04-26T22:38:12.926Z,4.50
2023-04-26T22:40:47.907Z,4.50
2023-04-26T22:43:21.901Z,4.60
2023-04-26T22:45:55.949Z,4.60
2023-04-26T22:48:29.900Z,4.70
2023-04-26T22:50:56.986Z,4.70
2023-04-26T22:53:30.894Z,4.80
2023-04-26T22:55:57.982Z,4.80
2023-04-26T22:58:31.905Z,4.80
2023-04-26T23:00:58.976Z,4.80
2023-04-26T23:03:33.023Z,4.70
2023-04-26T23:06:08.919Z,4.70
2023-04-26T23:08:42.955Z,4.60
2023-04-26T23:11:27.355Z,4.60
2023-04-26T23:14:01.925Z,4.60
2023-04-26T23:16:28.990Z,4.60
2023-04-26T23:19:03.950Z,4.60
2023-04-26T23:21:30.928Z,4.50
2023-04-26T23:23:58.032Z,4.50
2023-04-26T23:26:33.016Z,4.50
2023-04-26T23:29:00.056Z,4.50
2023-04-26T23:31:34.915Z,4.50
2023-04-26T23:34:08.874Z,4.50
2023-04-26T23:36:42.900Z,4.40
2023-04-26T23:39:09.968Z,4.40
2023-04-26T23:41:49.941Z,4.40
2023-04-26T23:44:23.931Z,4.40
2023-04-26T23:46:51.289Z,4.40
2023-04-26T23:49:25.968Z,4.40
2023-04-26T23:51:53.414Z,4.40
2023-04-26T23:54:27.955Z,4.40
2023-04-26T23:56:54.929Z,4.30
2023-04-26T23:59:29.984Z,4.30
